Huletts Landing, New York
Current Conditions -  °F | °C
As of 4:53 AM on Sunday 25 Jan 2015 (Local Time) from KGFL Reporting Station
Light Snow Light Snow  
Wind Chill: 25°   Ceiling: 4900
Heat Index: 32°   Visibility: 6mi
Dew Point: 27°   Wind: 8mph
Humidity: 82%   Direction: 190°S
Pressure: 29.42"   Gusts: NA
Location:  43.64°N, 73.51°W
Report Text: KGFL 250953Z AUTO 19007KT 6SM -SN SCT039 BKN049 OVC075 00/M03 A2942 RMK AO2 SNB01 SLP972 P0000 T00001028
Loading
Personal Weather Stations






























Interactive Weather Map New forecast layout! Learn more

10-Day Weather Forecast

Advertisements
Track Severe Weather on mobile